createdAt,value
2022-08-14T00:00:37.347Z,24.38
2022-08-14T00:01:41.132Z,24.44
2022-08-14T00:02:47.565Z,24.38
2022-08-14T00:03:55.258Z,24.37
2022-08-14T00:05:05.461Z,24.40
2022-08-14T00:06:28.445Z,24.36
2022-08-14T00:07:18.917Z,24.40
2022-08-14T00:08:44.851Z,24.40
2022-08-14T00:09:27.494Z,24.35
2022-08-14T00:10:51.324Z,24.34
2022-08-14T00:11:39.349Z,24.29
2022-08-14T00:12:56.285Z,24.33
2022-08-14T00:14:02.097Z,24.35
2022-08-14T00:15:08.495Z,24.28
2022-08-14T00:16:13.479Z,24.19
2022-08-14T00:17:19.071Z,24.18
2022-08-14T00:18:30.611Z,24.12
2022-08-14T00:19:38.472Z,24.20
2022-08-14T00:20:46.589Z,24.23
2022-08-14T00:21:55.525Z,24.25
2022-08-14T00:23:16.289Z,24.23
2022-08-14T00:24:13.372Z,24.33
2022-08-14T00:25:19.834Z,24.40
2022-08-14T00:26:27.796Z,24.26
2022-08-14T00:27:35.350Z,24.14
2022-08-14T00:28:41.148Z,24.19
2022-08-14T00:29:47.348Z,24.12
2022-08-14T00:30:59.019Z,24.20
2022-08-14T00:32:50.318Z,24.29
2022-08-14T00:33:15.245Z,24.29
2022-08-14T00:34:37.951Z,24.24
2022-08-14T00:36:35.579Z,24.12
2022-08-14T00:36:36.954Z,24.11
2022-08-14T00:37:44.996Z,24.10
2022-08-14T00:38:50.488Z,24.14
2022-08-14T00:39:56.514Z,24.06
2022-08-14T00:41:02.415Z,24.16
2022-08-14T00:42:21.335Z,24.20
2022-08-14T00:43:17.351Z,24.17
2022-08-14T00:44:32.474Z,24.12
2022-08-14T00:45:31.137Z,24.02
2022-08-14T00:46:35.179Z,24.10
2022-08-14T00:47:43.242Z,24.11
2022-08-14T00:48:49.007Z,24.12
2022-08-14T00:49:55.983Z,24.12
2022-08-14T00:51:01.503Z,24.06
2022-08-14T00:52:04.927Z,24.12
2022-08-14T00:53:10.616Z,23.97
2022-08-14T00:54:22.071Z,23.91
2022-08-14T00:55:23.344Z,24.00
2022-08-14T00:56:31.392Z,23.94
2022-08-14T00:57:37.172Z,23.96
2022-08-14T00:58:48.257Z,23.98
2022-08-14T00:59:47.927Z,23.96
2022-08-14T01:00:57.456Z,23.99
2022-08-14T01:02:01.487Z,23.98
2022-08-14T01:03:08.464Z,24.03
2022-08-14T01:04:38.361Z,24.07
2022-08-14T01:05:26.825Z,24.04
2022-08-14T01:06:34.385Z,24.03
2022-08-14T01:07:50.369Z,23.91
2022-08-14T01:08:52.090Z,23.91
2022-08-14T01:11:11.005Z,24.09
2022-08-14T01:12:26.769Z,23.88
2022-08-14T01:13:42.167Z,23.90
2022-08-14T01:14:41.733Z,23.98
2022-08-14T01:15:58.339Z,24.00
2022-08-14T01:16:52.862Z,23.94
2022-08-14T01:18:14.917Z,23.94
2022-08-14T01:19:23.066Z,24.02
2022-08-14T01:20:47.533Z,24.01
2022-08-14T01:21:53.816Z,24.05
2022-08-14T01:22:58.322Z,24.03
2022-08-14T01:24:03.126Z,23.79
2022-08-14T01:25:11.595Z,23.79
2022-08-14T01:26:23.521Z,23.91
2022-08-14T01:27:29.887Z,23.90
2022-08-14T01:29:58.910Z,23.93
2022-08-14T01:31:00.598Z,23.82
2022-08-14T01:32:10.544Z,23.95
2022-08-14T01:33:14.939Z,23.90
2022-08-14T01:35:20.773Z,23.99
2022-08-14T01:36:03.299Z,23.98
2022-08-14T01:36:42.315Z,24.02
2022-08-14T01:37:56.333Z,24.00
2022-08-14T01:38:59.551Z,24.05
2022-08-14T01:40:03.910Z,23.99
2022-08-14T01:41:14.992Z,23.93
2022-08-14T01:42:31.558Z,23.98
2022-08-14T01:43:27.073Z,24.09
2022-08-14T01:44:34.226Z,24.00
2022-08-14T01:45:40.162Z,23.97
2022-08-14T01:47:00.978Z,23.94
2022-08-14T01:48:03.014Z,23.98
2022-08-14T01:49:07.663Z,23.96
2022-08-14T01:50:12.272Z,23.95
2022-08-14T01:51:24.040Z,23.91
2022-08-14T01:52:34.027Z,23.82
2022-08-14T01:53:36.946Z,23.73
2022-08-14T01:54:41.991Z,23.70
2022-08-14T01:55:49.740Z,23.78
2022-08-14T01:56:57.247Z,23.82
2022-08-14T01:58:19.851Z,23.92
2022-08-14T01:59:18.080Z,23.97
2022-08-14T02:00:18.268Z,23.99
2022-08-14T02:01:21.224Z,23.90
2022-08-14T02:02:28.622Z,23.93
2022-08-14T02:03:41.527Z,23.92
2022-08-14T02:04:56.776Z,23.91
2022-08-14T02:05:54.971Z,23.84
2022-08-14T02:07:01.462Z,23.85
2022-08-14T02:08:10.500Z,23.84
2022-08-14T02:09:19.340Z,23.78
2022-08-14T02:10:26.099Z,23.75
2022-08-14T02:11:29.982Z,23.83
2022-08-14T02:12:34.209Z,23.75
2022-08-14T02:13:38.722Z,23.68
2022-08-14T02:14:59.167Z,23.71
2022-08-14T02:15:55.516Z,23.69
2022-08-14T02:17:00.975Z,23.55
2022-08-14T02:18:08.092Z,23.56
2022-08-14T02:19:20.693Z,23.52
2022-08-14T02:20:27.837Z,23.54
2022-08-14T02:21:43.504Z,23.57
2022-08-14T02:22:47.739Z,23.60
2022-08-14T02:23:48.288Z,23.68
2022-08-14T02:24:54.303Z,23.64
2022-08-14T02:26:24.773Z,23.57
2022-08-14T02:28:21.978Z,23.47
2022-08-14T02:28:56.327Z,23.59
2022-08-14T02:29:30.459Z,23.49
2022-08-14T02:30:38.183Z,23.60
2022-08-14T02:31:48.738Z,23.57
2022-08-14T02:32:53.556Z,23.52
2022-08-14T02:33:56.803Z,23.44
2022-08-14T02:35:01.504Z,23.40
2022-08-14T02:37:03.768Z,23.43
2022-08-14T02:37:13.529Z,23.47
2022-08-14T02:38:29.492Z,23.42
2022-08-14T02:39:25.087Z,23.41
2022-08-14T02:40:35.625Z,23.42
2022-08-14T02:41:52.335Z,23.35
2022-08-14T02:42:55.081Z,23.35
2022-08-14T02:44:00.874Z,23.45
2022-08-14T02:45:06.636Z,23.53
2022-08-14T02:46:12.481Z,23.44
2022-08-14T02:47:22.101Z,23.45
2022-08-14T02:49:03.761Z,23.44
2022-08-14T02:49:37.342Z,23.49
2022-08-14T02:50:43.318Z,23.38
2022-08-14T02:51:50.857Z,23.43
2022-08-14T02:53:03.135Z,23.47
2022-08-14T02:54:06.102Z,23.48
2022-08-14T02:55:19.933Z,23.41
2022-08-14T02:57:13.513Z,23.42
2022-08-14T02:57:39.267Z,23.39
2022-08-14T02:58:41.849Z,23.45
2022-08-14T02:59:47.182Z,23.50
2022-08-14T03:00:51.211Z,23.32
2022-08-14T03:01:58.914Z,23.36
2022-08-14T03:03:07.879Z,23.37
2022-08-14T03:04:14.141Z,23.48
2022-08-14T03:05:20.212Z,23.56
2022-08-14T03:06:48.943Z,23.49
2022-08-14T03:07:38.250Z,23.54
2022-08-14T03:08:46.170Z,23.57
2022-08-14T03:10:27.917Z,23.57
2022-08-14T03:10:57.839Z,23.55
2022-08-14T03:12:05.920Z,23.56
2022-08-14T03:13:13.694Z,23.59
2022-08-14T03:14:15.477Z,23.62
2022-08-14T03:15:20.928Z,23.71
2022-08-14T03:16:27.799Z,23.68
2022-08-14T03:17:56.094Z,23.62
2022-08-14T03:18:48.640Z,23.59
2022-08-14T03:19:54.875Z,23.58
2022-08-14T03:21:09.248Z,23.52
2022-08-14T03:22:17.733Z,23.57
2022-08-14T03:23:21.835Z,23.66
2022-08-14T03:24:26.182Z,23.74
2022-08-14T03:25:37.835Z,23.76
2022-08-14T03:26:46.490Z,23.82
2022-08-14T03:27:58.976Z,23.89
2022-08-14T03:29:01.152Z,23.79
2022-08-14T03:30:14.553Z,23.75
2022-08-14T03:31:16.085Z,23.66
2022-08-14T03:32:20.004Z,23.64
2022-08-14T03:33:26.919Z,23.49
2022-08-14T03:34:48.399Z,23.63
2022-08-14T03:35:39.781Z,23.66
2022-08-14T03:37:38.387Z,23.61
2022-08-14T03:39:15.409Z,23.65
2022-08-14T03:39:16.102Z,23.65
2022-08-14T03:40:11.404Z,23.71
2022-08-14T03:41:22.954Z,23.75
2022-08-14T03:42:35.804Z,23.74
2022-08-14T03:43:37.755Z,23.74
2022-08-14T03:45:25.166Z,23.79
2022-08-14T03:45:49.227Z,23.72
2022-08-14T03:46:56.059Z,23.64
2022-08-14T03:48:03.035Z,23.64
2022-08-14T03:49:07.049Z,23.60
2022-08-14T03:50:14.569Z,23.55
2022-08-14T03:51:20.022Z,23.51
2022-08-14T03:52:40.536Z,23.58
2022-08-14T03:53:31.299Z,23.60
2022-08-14T03:54:35.210Z,23.66
2022-08-14T03:55:45.060Z,23.61
2022-08-14T03:56:51.233Z,23.48
2022-08-14T03:57:57.560Z,23.52
2022-08-14T03:59:17.593Z,23.63
2022-08-14T04:00:40.471Z,23.63
2022-08-14T04:01:29.165Z,23.67
2022-08-14T04:02:37.409Z,23.72
2022-08-14T04:03:44.318Z,23.66
2022-08-14T04:04:50.928Z,23.78
2022-08-14T04:05:56.587Z,23.72
2022-08-14T04:07:03.248Z,23.92
2022-08-14T04:08:23.066Z,23.90
2022-08-14T04:09:17.863Z,23.90
2022-08-14T04:10:32.081Z,23.71
2022-08-14T04:11:35.904Z,23.76
2022-08-14T04:12:42.870Z,23.76
2022-08-14T04:13:51.029Z,23.86
2022-08-14T04:14:54.617Z,23.85
2022-08-14T04:16:04.819Z,23.98
2022-08-14T04:17:10.113Z,23.96
2022-08-14T04:18:14.694Z,23.92
2022-08-14T04:19:21.031Z,24.04
2022-08-14T04:20:28.030Z,23.99
2022-08-14T04:21:40.020Z,24.05
2022-08-14T04:22:43.342Z,24.15
2022-08-14T04:23:57.525Z,24.25
2022-08-14T04:24:54.662Z,24.25
2022-08-14T04:25:58.444Z,24.25
2022-08-14T04:27:03.417Z,24.29
2022-08-14T04:28:08.287Z,23.98
2022-08-14T04:29:17.791Z,23.83
2022-08-14T04:30:25.036Z,23.96
2022-08-14T04:32:57.387Z,24.18
2022-08-14T04:32:58.748Z,24.27
2022-08-14T04:33:39.191Z,24.38
2022-08-14T04:34:42.991Z,24.36
2022-08-14T04:35:56.295Z,24.56
2022-08-14T04:37:24.523Z,24.61
2022-08-14T04:38:47.111Z,24.67
2022-08-14T04:41:30.472Z,24.60
2022-08-14T04:42:51.752Z,24.77
2022-08-14T04:43:57.190Z,24.84
2022-08-14T04:45:00.830Z,24.94
2022-08-14T04:46:11.818Z,25.00
2022-08-14T04:47:37.017Z,24.90
2022-08-14T04:48:43.269Z,24.90
2022-08-14T04:49:57.237Z,25.20
2022-08-14T04:50:58.005Z,25.17
2022-08-14T04:53:26.305Z,25.36
2022-08-14T04:54:33.344Z,25.29
2022-08-14T04:55:38.148Z,25.54
2022-08-14T04:56:41.224Z,25.86
2022-08-14T04:57:48.227Z,25.87
2022-08-14T04:59:03.747Z,26.01
2022-08-14T05:00:16.248Z,25.81
2022-08-14T05:01:22.254Z,25.96
2022-08-14T05:02:30.595Z,26.27
2022-08-14T05:03:39.093Z,26.59
2022-08-14T05:04:45.158Z,26.85
2022-08-14T05:05:50.620Z,27.02
2022-08-14T05:06:56.336Z,27.37
2022-08-14T05:08:50.538Z,27.53
2022-08-14T05:09:29.170Z,28.03
2022-08-14T05:10:32.583Z,28.70
2022-08-14T05:11:39.818Z,28.80
2022-08-14T05:13:10.990Z,28.92
2022-08-14T05:14:56.812Z,29.72
2022-08-14T05:16:03.647Z,29.64
2022-08-14T05:17:10.416Z,29.52
2022-08-14T05:18:17.298Z,29.38
2022-08-14T05:19:27.055Z,29.62
2022-08-14T05:21:05.013Z,29.99
2022-08-14T05:21:59.395Z,29.98
2022-08-14T05:22:45.470Z,30.14
2022-08-14T05:23:48.921Z,30.55
2022-08-14T05:24:53.240Z,30.52
2022-08-14T05:26:04.056Z,30.78
2022-08-14T05:27:11.404Z,31.04
2022-08-14T05:28:21.271Z,30.94
2022-08-14T05:29:27.493Z,30.56
2022-08-14T05:30:34.052Z,30.09
2022-08-14T05:31:42.701Z,30.02
2022-08-14T05:32:46.827Z,29.71
2022-08-14T05:33:56.560Z,29.76
2022-08-14T05:35:00.184Z,30.03
2022-08-14T05:36:07.248Z,29.62
2022-08-14T05:37:19.967Z,29.19
2022-08-14T05:38:30.966Z,28.71
2022-08-14T05:39:32.477Z,28.51
2022-08-14T05:40:35.941Z,28.29
2022-08-14T05:41:53.511Z,28.21
2022-08-14T05:42:52.864Z,28.35
2022-08-14T05:43:55.366Z,28.35
2022-08-14T05:44:58.836Z,28.27
2022-08-14T05:46:09.729Z,28.23
2022-08-14T05:47:14.468Z,28.13
2022-08-14T05:48:32.685Z,27.96
2022-08-14T05:49:33.036Z,28.03
2022-08-14T05:50:38.269Z,28.24
2022-08-14T05:51:48.369Z,28.00
2022-08-14T05:53:01.548Z,28.02
2022-08-14T05:55:22.907Z,28.29
2022-08-14T05:56:28.424Z,28.24
2022-08-14T05:57:33.034Z,27.82
2022-08-14T05:58:41.439Z,27.74
2022-08-14T05:59:43.121Z,27.90
2022-08-14T06:00:49.347Z,28.00
2022-08-14T06:01:53.861Z,28.15
2022-08-14T06:03:04.161Z,28.13
2022-08-14T06:04:07.379Z,28.15
2022-08-14T06:05:11.976Z,28.17
2022-08-14T06:06:19.224Z,28.00
2022-08-14T06:07:21.965Z,28.22
2022-08-14T06:08:36.701Z,28.37
2022-08-14T06:09:40.643Z,28.54
2022-08-14T06:10:45.658Z,28.50
2022-08-14T06:11:51.056Z,28.75
2022-08-14T06:13:01.037Z,28.93
2022-08-14T06:14:04.508Z,28.86
2022-08-14T06:15:11.201Z,28.94
2022-08-14T06:16:18.930Z,29.04
2022-08-14T06:17:25.932Z,29.00
2022-08-14T06:18:31.987Z,28.76
2022-08-14T06:19:35.310Z,29.21
2022-08-14T06:20:39.999Z,29.43
2022-08-14T06:21:43.890Z,29.71
2022-08-14T06:22:49.741Z,29.69
2022-08-14T06:23:53.399Z,29.89
2022-08-14T06:24:57.727Z,29.66
2022-08-14T06:26:01.340Z,29.96
2022-08-14T06:27:10.797Z,30.49
2022-08-14T06:28:27.154Z,30.63
2022-08-14T06:29:32.009Z,30.83
2022-08-14T06:30:46.118Z,30.87
2022-08-14T06:31:39.828Z,30.42
2022-08-14T06:32:45.756Z,30.46
2022-08-14T06:35:03.458Z,30.26
2022-08-14T06:35:04.398Z,30.48
2022-08-14T06:36:05.516Z,30.00
2022-08-14T06:37:08.697Z,30.17
2022-08-14T06:38:23.535Z,30.21
2022-08-14T06:40:43.040Z,31.89
2022-08-14T06:41:57.626Z,32.36
2022-08-14T06:42:51.572Z,32.76
2022-08-14T06:44:02.282Z,32.87
2022-08-14T06:45:08.603Z,32.52
2022-08-14T06:46:12.921Z,32.77
2022-08-14T06:47:17.556Z,33.69
2022-08-14T06:48:25.598Z,33.92
2022-08-14T06:49:40.168Z,33.16
2022-08-14T06:50:39.873Z,32.65
2022-08-14T06:51:45.098Z,32.25
2022-08-14T06:52:50.283Z,31.41
2022-08-14T06:53:55.982Z,31.61
2022-08-14T06:55:01.469Z,31.47
2022-08-14T06:56:08.558Z,30.89
2022-08-14T06:57:14.455Z,31.13
2022-08-14T06:58:24.721Z,31.04
2022-08-14T06:59:29.365Z,31.25
2022-08-14T07:00:34.232Z,31.33
2022-08-14T07:01:58.876Z,31.52
2022-08-14T07:03:21.830Z,33.96
2022-08-14T07:04:43.308Z,37.15
2022-08-14T07:05:55.804Z,38.60
2022-08-14T07:06:59.012Z,39.46
2022-08-14T07:09:16.835Z,40.29
2022-08-14T07:10:25.342Z,40.58
2022-08-14T07:11:27.765Z,41.06
2022-08-14T07:13:01.999Z,40.75
2022-08-14T07:13:40.740Z,40.15
2022-08-14T07:14:45.721Z,40.38
2022-08-14T07:15:55.100Z,41.17
2022-08-14T07:17:00.332Z,42.12
2022-08-14T07:18:08.716Z,42.51
2022-08-14T07:19:11.416Z,42.08
2022-08-14T07:20:20.102Z,41.14
2022-08-14T07:21:26.159Z,39.20
2022-08-14T07:22:32.895Z,39.88
2022-08-14T07:23:40.214Z,40.22
2022-08-14T07:26:03.811Z,40.72
2022-08-14T07:27:14.740Z,40.75
2022-08-14T07:28:24.685Z,40.68
2022-08-14T07:29:29.902Z,41.13
2022-08-14T07:30:35.890Z,40.98
2022-08-14T07:31:44.145Z,41.13
2022-08-14T07:32:51.397Z,40.99
2022-08-14T07:33:54.308Z,41.02
2022-08-14T07:34:57.736Z,41.33
2022-08-14T07:36:26.576Z,41.83
2022-08-14T07:37:11.792Z,41.74
2022-08-14T07:38:24.488Z,41.93
2022-08-14T07:39:28.736Z,40.85
2022-08-14T07:40:36.176Z,40.20
2022-08-14T07:41:47.514Z,40.41
2022-08-14T07:42:52.756Z,40.12
2022-08-14T07:43:57.701Z,40.13
2022-08-14T07:45:04.609Z,40.21
2022-08-14T07:46:09.362Z,40.46
2022-08-14T07:47:13.740Z,40.05
2022-08-14T07:48:17.592Z,40.61
2022-08-14T07:49:24.202Z,41.07
2022-08-14T07:50:40.308Z,40.79
2022-08-14T07:51:50.751Z,40.96
2022-08-14T07:52:54.907Z,40.55
2022-08-14T07:53:59.976Z,40.57
2022-08-14T07:55:08.633Z,40.85
2022-08-14T07:56:44.250Z,40.21
2022-08-14T07:57:22.459Z,39.13
2022-08-14T07:58:31.645Z,39.83
2022-08-14T07:59:41.028Z,39.25
2022-08-14T08:00:37.366Z,39.38
2022-08-14T08:01:48.369Z,39.10
2022-08-14T08:02:55.899Z,39.18
2022-08-14T08:04:04.627Z,38.78
2022-08-14T08:05:12.532Z,39.20
2022-08-14T08:06:20.348Z,39.07
2022-08-14T08:07:30.099Z,38.65
2022-08-14T08:08:36.021Z,38.94
2022-08-14T08:09:48.163Z,39.30
2022-08-14T08:11:02.923Z,38.99
2022-08-14T08:12:09.378Z,38.09
2022-08-14T08:13:16.487Z,38.21
2022-08-14T08:14:21.612Z,37.81
2022-08-14T08:16:38.750Z,37.85
2022-08-14T08:17:53.671Z,36.86
2022-08-14T08:18:48.534Z,36.78
2022-08-14T08:19:52.225Z,36.60
2022-08-14T08:20:59.357Z,36.23
2022-08-14T08:22:04.655Z,36.23
2022-08-14T08:23:20.682Z,36.45
2022-08-14T08:24:21.094Z,36.39
2022-08-14T08:25:26.497Z,36.63
2022-08-14T08:26:32.627Z,36.53
2022-08-14T08:27:39.138Z,36.50
2022-08-14T08:28:44.777Z,36.45
2022-08-14T08:29:50.766Z,36.29
2022-08-14T08:31:01.577Z,35.56
2022-08-14T08:32:06.244Z,34.63
2022-08-14T08:33:12.267Z,35.08
2022-08-14T08:34:18.226Z,34.99
2022-08-14T08:35:24.132Z,35.22
2022-08-14T08:36:29.926Z,34.50
2022-08-14T08:37:40.023Z,34.62
2022-08-14T08:39:18.185Z,35.22
2022-08-14T08:40:02.333Z,35.75
2022-08-14T08:41:02.008Z,36.11
2022-08-14T08:42:07.019Z,36.78
2022-08-14T08:43:35.470Z,36.37
2022-08-14T08:44:40.607Z,36.20
2022-08-14T08:47:11.488Z,36.17
2022-08-14T08:48:18.085Z,35.92
2022-08-14T08:49:21.031Z,36.19
2022-08-14T08:51:43.026Z,36.95
2022-08-14T08:52:59.419Z,36.96
2022-08-14T08:54:18.252Z,36.86
2022-08-14T08:55:19.707Z,36.92
2022-08-14T08:56:46.124Z,36.70
2022-08-14T08:57:55.188Z,36.36
2022-08-14T08:58:58.741Z,36.42
2022-08-14T09:00:03.137Z,36.08
2022-08-14T09:01:09.250Z,35.92
2022-08-14T09:02:21.227Z,35.52
2022-08-14T09:03:30.340Z,34.96
2022-08-14T09:04:45.264Z,35.22
2022-08-14T09:06:53.658Z,34.78
2022-08-14T09:07:13.243Z,34.34
2022-08-14T09:09:34.551Z,35.10
2022-08-14T09:10:40.489Z,35.65
2022-08-14T09:11:45.704Z,35.76
2022-08-14T09:12:53.216Z,36.07
2022-08-14T09:13:58.671Z,36.04
2022-08-14T09:15:12.040Z,35.12
2022-08-14T09:16:19.849Z,35.56
2022-08-14T09:17:25.860Z,35.81
2022-08-14T09:18:29.435Z,35.16
2022-08-14T09:19:36.286Z,34.18
2022-08-14T09:20:43.903Z,34.18
2022-08-14T09:21:48.481Z,34.09
2022-08-14T09:22:56.830Z,33.70
2022-08-14T09:24:28.867Z,33.73
2022-08-14T09:25:08.928Z,33.88
2022-08-14T09:26:21.035Z,34.16
2022-08-14T09:27:22.471Z,34.23
2022-08-14T09:28:26.820Z,34.39
2022-08-14T09:29:32.230Z,34.27
2022-08-14T09:30:39.501Z,34.25
2022-08-14T09:31:53.371Z,34.60
2022-08-14T09:33:10.961Z,34.68
2022-08-14T09:34:28.230Z,34.90
2022-08-14T09:35:42.615Z,34.87
2022-08-14T09:36:55.058Z,34.92
2022-08-14T09:40:03.676Z,35.42
2022-08-14T09:41:36.815Z,35.09
2022-08-14T09:42:50.368Z,35.33
2022-08-14T09:44:25.222Z,35.37
2022-08-14T09:45:53.567Z,35.13
2022-08-14T09:46:57.949Z,34.71
2022-08-14T09:48:06.655Z,34.88
2022-08-14T09:49:17.031Z,34.90
2022-08-14T09:50:33.387Z,34.77
2022-08-14T09:51:44.928Z,34.76
2022-08-14T09:52:57.856Z,34.33
2022-08-14T09:54:19.207Z,34.10
2022-08-14T09:55:22.458Z,34.05
2022-08-14T09:56:30.888Z,34.48
2022-08-14T09:57:33.416Z,34.47
2022-08-14T09:58:46.534Z,34.68
2022-08-14T09:59:50.394Z,34.22
2022-08-14T10:01:02.031Z,34.62
2022-08-14T10:02:24.812Z,34.91
2022-08-14T10:03:34.326Z,35.23
2022-08-14T10:05:49.153Z,34.95
2022-08-14T10:06:54.072Z,35.20
2022-08-14T10:08:01.279Z,35.08
2022-08-14T10:09:12.018Z,34.86
2022-08-14T10:10:23.276Z,34.54
2022-08-14T10:11:25.202Z,34.43
2022-08-14T10:12:58.310Z,33.94
2022-08-14T10:14:05.219Z,33.14
2022-08-14T10:15:22.639Z,33.16
2022-08-14T10:16:33.708Z,33.04
2022-08-14T10:17:38.873Z,33.15
2022-08-14T10:18:42.495Z,33.52
2022-08-14T10:19:49.297Z,33.72
2022-08-14T10:21:00.654Z,33.77
2022-08-14T10:23:13.183Z,34.01
2022-08-14T10:23:20.950Z,34.08
2022-08-14T10:25:51.133Z,34.23
2022-08-14T10:27:01.101Z,33.92
2022-08-14T10:28:04.942Z,34.17
2022-08-14T10:29:19.802Z,33.86
2022-08-14T10:30:25.715Z,33.86
2022-08-14T10:31:43.145Z,33.84
2022-08-14T10:32:51.474Z,33.91
2022-08-14T10:34:12.892Z,33.85
2022-08-14T10:35:16.399Z,34.06
2022-08-14T10:36:37.260Z,34.53
2022-08-14T10:37:45.897Z,34.50
2022-08-14T10:38:54.623Z,34.31
2022-08-14T10:40:10.252Z,34.18
2022-08-14T10:41:17.294Z,34.30
2022-08-14T10:42:22.717Z,34.37
2022-08-14T10:43:31.846Z,34.70
2022-08-14T10:44:38.513Z,34.78
2022-08-14T10:45:59.735Z,34.22
2022-08-14T10:47:41.475Z,34.18
2022-08-14T10:48:24.568Z,33.84
2022-08-14T10:49:25.672Z,33.99
2022-08-14T10:50:38.994Z,33.98
2022-08-14T10:51:43.787Z,34.28
2022-08-14T10:52:53.660Z,34.31
2022-08-14T10:53:58.373Z,34.66
2022-08-14T10:55:14.599Z,34.28
2022-08-14T10:56:32.210Z,34.36
2022-08-14T10:57:32.170Z,34.07
2022-08-14T10:58:38.924Z,33.72
2022-08-14T10:59:46.043Z,33.60
2022-08-14T11:00:59.925Z,33.24
2022-08-14T11:02:04.315Z,33.39
2022-08-14T11:03:20.024Z,33.62
2022-08-14T11:04:27.663Z,33.77
2022-08-14T11:05:54.997Z,33.58
2022-08-14T11:06:57.291Z,33.39
2022-08-14T11:08:09.217Z,33.14
2022-08-14T11:09:13.711Z,33.35
2022-08-14T11:10:19.507Z,33.70
2022-08-14T11:11:26.171Z,33.81
2022-08-14T11:12:47.439Z,33.83
2022-08-14T11:13:50.807Z,34.09
2022-08-14T11:14:59.765Z,33.56
2022-08-14T11:16:05.755Z,33.26
2022-08-14T11:17:11.192Z,33.15
2022-08-14T11:18:20.593Z,33.41
2022-08-14T11:19:26.894Z,33.34
2022-08-14T11:20:31.736Z,33.64
2022-08-14T11:21:40.694Z,33.44
2022-08-14T11:22:56.094Z,33.78
2022-08-14T11:23:59.642Z,33.99
2022-08-14T11:25:06.613Z,33.91
2022-08-14T11:26:11.715Z,34.35
2022-08-14T11:27:18.974Z,34.66
2022-08-14T11:28:47.356Z,34.82
2022-08-14T11:29:38.178Z,34.45
2022-08-14T11:56:13.652Z,33.09
2022-08-14T11:57:22.891Z,32.91
2022-08-14T11:58:34.655Z,32.65
2022-08-14T11:59:44.258Z,32.52
2022-08-14T12:00:56.326Z,32.38
2022-08-14T12:03:00.706Z,32.36
2022-08-14T12:03:37.205Z,32.03
2022-08-14T12:04:33.109Z,32.03
2022-08-14T12:05:40.498Z,32.04
2022-08-14T12:06:53.526Z,31.93
2022-08-14T12:07:57.922Z,31.97
2022-08-14T12:09:00.957Z,31.95
2022-08-14T12:10:27.405Z,31.67
2022-08-14T12:11:14.481Z,31.50
2022-08-14T12:12:35.704Z,31.41
2022-08-14T12:13:36.837Z,31.68
2022-08-14T12:14:54.934Z,31.57
2022-08-14T12:16:20.502Z,31.45
2022-08-14T12:17:24.246Z,31.41
2022-08-14T12:18:42.107Z,31.34
2022-08-14T12:19:56.471Z,31.22
2022-08-14T12:21:23.741Z,31.19
2022-08-14T12:22:35.071Z,31.31
2022-08-14T12:23:43.126Z,31.21
2022-08-14T12:24:53.129Z,31.30
2022-08-14T12:26:32.038Z,31.09
2022-08-14T12:27:16.909Z,31.17
2022-08-14T12:29:32.205Z,31.12
2022-08-14T12:30:43.707Z,31.13
2022-08-14T12:31:51.653Z,31.29
2022-08-14T12:33:11.544Z,31.09
2022-08-14T12:34:22.876Z,31.18
2022-08-14T12:35:44.990Z,30.96
2022-08-14T12:36:48.837Z,30.84
2022-08-14T12:37:52.644Z,30.79
2022-08-14T12:38:56.128Z,30.73
2022-08-14T12:40:20.651Z,30.90
2022-08-14T12:41:28.119Z,30.88
2022-08-14T12:42:41.802Z,30.71
2022-08-14T12:43:52.719Z,30.93
2022-08-14T12:44:57.893Z,30.85
2022-08-14T12:46:02.516Z,30.81
2022-08-14T12:47:15.010Z,30.85
2022-08-14T12:48:21.675Z,30.60
2022-08-14T12:49:25.816Z,30.76
2022-08-14T12:50:38.888Z,30.39
2022-08-14T12:51:47.060Z,30.10
2022-08-14T12:53:02.197Z,29.91
2022-08-14T12:53:59.509Z,30.21
2022-08-14T12:55:08.627Z,30.23
2022-08-14T12:56:33.134Z,30.37
2022-08-14T12:57:37.462Z,30.51
2022-08-14T12:58:51.642Z,30.65
2022-08-14T12:59:50.693Z,30.42
2022-08-14T13:01:16.370Z,30.40
2022-08-14T13:02:11.535Z,30.35
2022-08-14T13:03:26.996Z,30.33
2022-08-14T13:04:31.872Z,30.14
2022-08-14T13:05:40.134Z,30.08
2022-08-14T13:06:50.827Z,29.84
2022-08-14T13:07:55.984Z,29.79
2022-08-14T13:09:02.429Z,29.71
2022-08-14T13:10:47.604Z,29.48
2022-08-14T13:11:17.913Z,29.49
2022-08-14T13:12:43.076Z,29.62
2022-08-14T13:13:48.962Z,29.65
2022-08-14T13:14:54.733Z,29.51
2022-08-14T13:16:02.652Z,29.26
2022-08-14T13:17:13.470Z,29.37
2022-08-14T13:18:17.199Z,29.46
2022-08-14T13:19:24.447Z,29.51
2022-08-14T13:20:30.748Z,29.37
2022-08-14T13:21:58.861Z,29.41
2022-08-14T13:22:46.567Z,29.41
2022-08-14T13:23:52.927Z,29.53
2022-08-14T13:24:58.600Z,29.34
2022-08-14T13:26:02.844Z,29.21
2022-08-14T13:27:11.415Z,29.21
2022-08-14T13:28:30.123Z,29.32
2022-08-14T13:29:29.641Z,29.14
2022-08-14T13:30:38.952Z,29.11
2022-08-14T13:31:47.824Z,29.11
2022-08-14T13:32:59.575Z,29.09
2022-08-14T13:34:06.992Z,29.09
2022-08-14T13:35:17.485Z,29.13
2022-08-14T13:36:23.941Z,29.07
2022-08-14T13:37:28.462Z,29.21
2022-08-14T13:38:33.120Z,29.17
2022-08-14T13:39:38.095Z,28.93
2022-08-14T13:40:43.780Z,29.13
2022-08-14T13:41:55.952Z,29.18
2022-08-14T13:42:57.652Z,29.16
2022-08-14T13:44:02.031Z,29.04
2022-08-14T13:45:08.678Z,28.89
2022-08-14T13:46:15.969Z,29.10
2022-08-14T13:47:22.754Z,29.15
2022-08-14T13:49:56.742Z,29.35
2022-08-14T13:50:45.374Z,29.33
2022-08-14T13:51:54.402Z,29.33
2022-08-14T13:53:02.247Z,29.36
2022-08-14T13:54:11.111Z,29.33
2022-08-14T13:55:18.647Z,29.33
2022-08-14T13:56:36.217Z,29.60
2022-08-14T13:57:49.632Z,29.35
2022-08-14T13:58:54.800Z,29.20
2022-08-14T14:00:06.079Z,29.30
2022-08-14T14:01:19.252Z,29.56
2022-08-14T14:02:34.070Z,29.63
2022-08-14T14:03:36.970Z,29.46
2022-08-14T14:04:46.382Z,29.66
2022-08-14T14:05:54.283Z,29.54
2022-08-14T14:07:10.501Z,29.54
2022-08-14T14:08:46.565Z,29.25
2022-08-14T14:09:32.445Z,29.11
2022-08-14T14:10:39.282Z,29.26
2022-08-14T14:11:44.171Z,29.16
2022-08-14T14:12:56.257Z,29.41
2022-08-14T14:14:00.830Z,29.30
2022-08-14T14:15:07.285Z,29.08
2022-08-14T14:16:26.135Z,29.15
2022-08-14T14:17:29.054Z,29.15
2022-08-14T14:18:37.508Z,29.29
2022-08-14T14:19:47.958Z,29.47
2022-08-14T14:20:52.584Z,29.58
2022-08-14T14:21:58.810Z,29.74
2022-08-14T14:23:11.578Z,29.63
2022-08-14T14:24:14.903Z,29.56
2022-08-14T14:25:19.440Z,29.82
2022-08-14T14:26:26.853Z,29.66
2022-08-14T14:27:41.494Z,29.73
2022-08-14T14:28:43.521Z,29.66
2022-08-14T14:29:55.558Z,29.56
2022-08-14T14:31:06.680Z,29.95
2022-08-14T14:32:17.437Z,29.88
2022-08-14T14:33:44.793Z,29.90
2022-08-14T14:34:30.005Z,30.07
2022-08-14T14:35:39.565Z,30.40
2022-08-14T14:36:49.902Z,30.28
2022-08-14T14:37:52.858Z,30.30
2022-08-14T14:40:52.817Z,30.00
2022-08-14T14:41:30.761Z,29.69
2022-08-14T14:42:38.964Z,29.53
2022-08-14T14:43:46.324Z,29.61
2022-08-14T14:44:56.545Z,29.48
2022-08-14T14:46:00.787Z,29.51
2022-08-14T14:47:23.290Z,29.50
2022-08-14T14:48:31.063Z,29.28
2022-08-14T14:49:51.595Z,29.07
2022-08-14T14:50:42.377Z,29.10
2022-08-14T14:51:54.650Z,29.01
2022-08-14T14:53:12.445Z,28.92
2022-08-14T14:54:08.351Z,28.96
2022-08-14T14:56:49.377Z,29.18
2022-08-14T14:57:35.066Z,28.93
2022-08-14T14:58:41.107Z,29.02
2022-08-14T14:59:47.779Z,29.23
2022-08-14T15:00:59.671Z,29.30
2022-08-14T15:02:09.612Z,29.17
2022-08-14T15:03:15.490Z,29.17
2022-08-14T15:04:21.390Z,29.13
2022-08-14T15:05:28.487Z,28.87
2022-08-14T15:06:33.579Z,28.69
2022-08-14T15:07:39.223Z,28.86
2022-08-14T15:08:56.716Z,28.96
2022-08-14T15:09:48.548Z,28.83
2022-08-14T15:10:53.637Z,28.74
2022-08-14T15:11:58.114Z,28.87
2022-08-14T15:13:04.307Z,28.86
2022-08-14T15:14:55.246Z,29.05
2022-08-14T15:15:16.411Z,29.11
2022-08-14T15:16:22.404Z,29.17
2022-08-14T15:17:35.353Z,29.08
2022-08-14T15:18:46.415Z,28.84
2022-08-14T15:19:56.765Z,28.68
2022-08-14T15:21:03.002Z,28.78
2022-08-14T15:22:08.206Z,28.83
2022-08-14T15:23:13.489Z,28.69
2022-08-14T15:24:24.456Z,28.60
2022-08-14T15:25:23.553Z,28.40
2022-08-14T15:26:31.634Z,28.46
2022-08-14T15:27:33.838Z,28.63
2022-08-14T15:28:41.176Z,28.58
2022-08-14T15:30:09.884Z,28.48